createdAt,value
2022-10-17T00:01:20.247Z,14.78
2022-10-17T00:04:36.391Z,14.98
2022-10-17T00:07:52.360Z,17.83
2022-10-17T00:11:12.157Z,14.03
2022-10-17T00:14:30.708Z,15.78
2022-10-17T00:17:47.349Z,14.57
2022-10-17T00:21:04.674Z,16.95
2022-10-17T00:24:22.355Z,16.40
2022-10-17T00:27:39.801Z,18.40
2022-10-17T00:31:05.107Z,12.83
2022-10-17T00:34:22.720Z,13.00
2022-10-17T00:37:43.247Z,14.75
2022-10-17T00:40:59.315Z,14.38
2022-10-17T00:44:48.164Z,15.13
2022-10-17T00:48:11.390Z,12.53
2022-10-17T00:51:34.463Z,13.23
2022-10-17T00:54:55.153Z,17.45
2022-10-17T00:58:12.778Z,14.58
2022-10-17T01:01:31.982Z,13.53
2022-10-17T01:04:51.526Z,15.93
2022-10-17T01:11:31.988Z,14.90
2022-10-17T01:14:55.388Z,15.30
2022-10-17T01:18:21.411Z,16.80
2022-10-17T01:21:57.334Z,16.68
2022-10-17T01:25:32.251Z,15.10
2022-10-17T01:29:33.484Z,13.18
2022-10-17T01:32:55.103Z,16.73
2022-10-17T01:36:16.166Z,15.70
2022-10-17T01:39:38.498Z,15.40
2022-10-17T01:43:01.287Z,17.33
2022-10-17T01:46:23.794Z,17.93
2022-10-17T01:49:43.175Z,14.93
2022-10-17T01:53:05.173Z,14.35
2022-10-17T01:56:25.034Z,19.03
2022-10-17T01:59:45.748Z,15.23
2022-10-17T02:03:06.033Z,15.53
2022-10-17T02:06:22.106Z,18.48
2022-10-17T02:09:38.471Z,17.53
2022-10-17T02:13:01.135Z,18.93
2022-10-17T02:16:33.316Z,16.70
2022-10-17T02:20:03.320Z,16.80
2022-10-17T02:23:24.725Z,14.80
2022-10-17T02:26:46.812Z,16.80
2022-10-17T02:30:11.885Z,14.15
2022-10-17T02:33:33.584Z,16.53
2022-10-17T02:36:54.784Z,14.85
2022-10-17T02:40:15.050Z,16.90
2022-10-17T02:43:32.022Z,14.08
2022-10-17T02:46:56.075Z,14.10
2022-10-17T02:50:13.387Z,17.08
2022-10-17T02:53:35.984Z,16.60
2022-10-17T02:56:58.469Z,15.80
2022-10-17T03:00:24.661Z,15.40
2022-10-17T03:03:42.411Z,14.15
2022-10-17T03:06:58.893Z,16.18
2022-10-17T03:10:16.045Z,14.13
2022-10-17T03:13:34.958Z,15.48
2022-10-17T03:16:50.431Z,14.55
2022-10-17T03:20:07.007Z,20.30
2022-10-17T03:23:22.990Z,16.93
2022-10-17T03:26:41.377Z,17.18
2022-10-17T03:29:57.477Z,17.47
2022-10-17T03:33:13.508Z,15.50
2022-10-17T03:36:30.052Z,18.13
2022-10-17T03:39:45.980Z,16.53
2022-10-17T03:43:02.363Z,16.03
2022-10-17T03:49:34.403Z,19.68
2022-10-17T03:52:54.070Z,16.13
2022-10-17T03:56:22.071Z,16.85
2022-10-17T03:59:40.598Z,16.20
2022-10-17T04:02:58.481Z,24.43
2022-10-17T04:06:18.954Z,22.73
2022-10-17T04:09:34.967Z,19.05
2022-10-17T04:16:21.899Z,20.80
2022-10-17T04:19:40.693Z,17.88
2022-10-17T04:22:57.076Z,19.80
2022-10-17T04:26:14.603Z,20.38
2022-10-17T04:29:31.971Z,18.63
2022-10-17T04:32:55.769Z,17.63
2022-10-17T04:36:18.095Z,18.53
2022-10-17T04:39:34.924Z,16.53
2022-10-17T04:42:51.385Z,18.60
2022-10-17T04:46:22.694Z,16.48
2022-10-17T04:49:38.765Z,17.90
2022-10-17T04:52:56.873Z,16.93
2022-10-17T04:56:20.002Z,20.18
2022-10-17T04:59:36.519Z,17.65
2022-10-17T05:03:10.220Z,22.00
2022-10-17T05:06:29.252Z,23.23
2022-10-17T05:10:03.488Z,21.95
2022-10-17T05:13:21.380Z,19.18
2022-10-17T05:16:39.472Z,19.60
2022-10-17T05:19:56.664Z,22.63
2022-10-17T05:23:13.326Z,20.28
2022-10-17T05:26:33.442Z,22.60
2022-10-17T05:29:53.615Z,21.18
2022-10-17T05:33:12.148Z,21.25
2022-10-17T05:36:29.331Z,23.30
2022-10-17T05:39:50.627Z,22.00
2022-10-17T05:43:04.600Z,21.00
2022-10-17T05:46:21.364Z,20.90
2022-10-17T05:49:48.357Z,20.35
2022-10-17T05:52:56.234Z,23.63
2022-10-17T05:56:18.294Z,26.05
2022-10-17T05:59:36.626Z,25.58
2022-10-17T06:02:58.582Z,26.25
2022-10-17T06:06:18.220Z,23.93
2022-10-17T06:09:36.382Z,24.48
2022-10-17T06:12:52.886Z,22.48
2022-10-17T06:16:09.444Z,23.00
2022-10-17T06:19:25.854Z,21.85
2022-10-17T06:22:43.992Z,28.25
2022-10-17T06:26:01.832Z,24.28
2022-10-17T06:29:19.231Z,25.38
2022-10-17T06:32:39.911Z,28.60
2022-10-17T06:36:01.037Z,28.90
2022-10-17T06:39:19.373Z,30.58
2022-10-17T06:42:37.109Z,25.23
2022-10-17T06:46:11.843Z,25.78
2022-10-17T06:49:30.923Z,27.08
2022-10-17T06:52:49.258Z,22.35
2022-10-17T06:56:23.845Z,22.60
2022-10-17T06:59:45.528Z,24.68
2022-10-17T07:03:04.915Z,32.43
2022-10-17T07:06:25.169Z,42.15
2022-10-17T07:09:45.963Z,55.28
2022-10-17T07:13:03.565Z,61.65
2022-10-17T07:16:23.049Z,44.93
2022-10-17T07:19:41.107Z,47.40
2022-10-17T07:22:58.247Z,53.38
2022-10-17T07:26:20.898Z,56.80
2022-10-17T07:29:40.054Z,49.33
2022-10-17T07:33:00.210Z,62.68
2022-10-17T07:36:25.080Z,55.85
2022-10-17T07:39:43.645Z,58.98
2022-10-17T07:43:00.883Z,53.00
2022-10-17T07:46:20.140Z,43.28
2022-10-17T07:49:36.412Z,48.65
2022-10-17T07:52:55.044Z,61.45
2022-10-17T07:56:15.215Z,52.25
2022-10-17T07:59:31.504Z,56.00
2022-10-17T08:02:47.591Z,56.95
2022-10-17T08:06:09.132Z,48.65
2022-10-17T08:09:25.523Z,46.98
2022-10-17T08:12:41.945Z,57.88
2022-10-17T08:15:58.507Z,39.15
2022-10-17T08:19:15.221Z,39.30
2022-10-17T08:22:32.182Z,35.50
2022-10-17T08:25:49.453Z,33.23
2022-10-17T08:29:08.634Z,30.78
2022-10-17T08:32:26.715Z,24.05
2022-10-17T08:35:43.132Z,25.53
2022-10-17T08:38:59.413Z,29.85
2022-10-17T08:42:31.528Z,33.48
2022-10-17T08:45:54.901Z,34.70
2022-10-17T08:49:15.744Z,32.25
2022-10-17T08:52:38.654Z,26.95
2022-10-17T08:55:57.706Z,31.35
2022-10-17T08:59:22.526Z,24.70
2022-10-17T09:02:52.483Z,31.13
2022-10-17T09:06:19.996Z,20.28
2022-10-17T09:09:46.775Z,26.28
2022-10-17T09:13:11.679Z,21.65
2022-10-17T09:16:51.678Z,22.88
2022-10-17T09:20:16.850Z,22.73
2022-10-17T09:23:41.766Z,19.48
2022-10-17T09:26:59.186Z,21.48
2022-10-17T09:30:45.498Z,18.88
2022-10-17T09:34:02.927Z,19.95
2022-10-17T09:37:23.052Z,18.13
2022-10-17T09:40:42.343Z,18.70
2022-10-17T09:44:00.292Z,30.58
2022-10-17T09:47:35.870Z,168.03
2022-10-17T09:51:02.620Z,32.80
2022-10-17T09:54:17.605Z,21.83
2022-10-17T09:57:33.652Z,18.90
2022-10-17T10:00:52.848Z,16.93
2022-10-17T10:04:22.926Z,20.60
2022-10-17T10:07:41.812Z,15.15
2022-10-17T10:11:05.456Z,14.53
2022-10-17T10:14:28.887Z,14.93
2022-10-17T10:17:49.932Z,16.43
2022-10-17T10:21:17.868Z,13.25
2022-10-17T10:24:38.197Z,12.95
2022-10-17T10:27:58.252Z,32.50
2022-10-17T10:31:17.353Z,15.48
2022-10-17T10:34:36.715Z,10.98
2022-10-17T10:37:55.598Z,12.98
2022-10-17T10:41:15.461Z,15.83
2022-10-17T10:44:35.599Z,12.20
2022-10-17T10:48:01.211Z,14.28
2022-10-17T10:51:22.573Z,10.20
2022-10-17T10:54:43.594Z,13.10
2022-10-17T10:58:03.527Z,9.78
2022-10-17T11:01:25.776Z,11.73
2022-10-17T11:04:45.955Z,10.13
2022-10-17T11:08:08.027Z,12.73
2022-10-17T11:11:30.932Z,8.68
2022-10-17T11:14:55.659Z,11.03
2022-10-17T11:18:16.597Z,10.63
2022-10-17T11:25:02.432Z,9.63
2022-10-17T11:28:26.453Z,8.85
2022-10-17T11:31:47.594Z,10.38
2022-10-17T11:35:09.198Z,7.18
2022-10-17T11:38:33.385Z,9.15
2022-10-17T11:41:55.438Z,8.48
2022-10-17T11:45:17.031Z,7.10
2022-10-17T11:48:37.459Z,6.13
2022-10-17T11:52:01.968Z,7.50
2022-10-17T11:55:25.357Z,7.98
2022-10-17T11:58:47.504Z,8.90
2022-10-17T12:02:07.643Z,8.83
2022-10-17T12:05:31.926Z,7.95
2022-10-17T12:08:56.423Z,7.43
2022-10-17T12:12:14.453Z,7.03
2022-10-17T12:15:43.585Z,6.65
2022-10-17T12:19:07.190Z,7.18
2022-10-17T12:22:32.315Z,9.15
2022-10-17T12:26:01.468Z,7.80
2022-10-17T12:29:32.322Z,10.03
2022-10-17T12:33:07.717Z,7.30
2022-10-17T12:36:47.578Z,8.60
2022-10-17T12:40:03.909Z,8.95
2022-10-17T12:43:46.602Z,7.88
2022-10-17T12:47:22.598Z,7.18
2022-10-17T12:54:37.846Z,8.13
2022-10-17T13:01:24.555Z,7.85
2022-10-17T13:04:34.912Z,10.28
2022-10-17T13:07:53.633Z,6.88
2022-10-17T13:11:10.543Z,7.63
2022-10-17T13:14:29.207Z,7.53
2022-10-17T13:17:45.367Z,28.40
2022-10-17T13:21:11.005Z,10.55
2022-10-17T13:24:39.457Z,10.30
2022-10-17T13:27:56.933Z,10.83
2022-10-17T13:31:13.309Z,6.90
2022-10-17T13:34:31.689Z,7.68
2022-10-17T13:37:53.913Z,8.35
2022-10-17T13:41:34.187Z,8.43
2022-10-17T13:44:33.391Z,7.68
2022-10-17T13:47:49.811Z,9.35
2022-10-17T13:51:11.116Z,8.85
2022-10-17T13:54:43.898Z,8.38
2022-10-17T13:58:00.166Z,8.35
2022-10-17T14:01:17.093Z,8.28
2022-10-17T14:04:56.620Z,8.80
2022-10-17T14:08:16.648Z,8.75
2022-10-17T14:11:26.897Z,10.55
2022-10-17T14:15:08.817Z,10.53
2022-10-17T14:18:10.141Z,8.93
2022-10-17T14:21:43.249Z,8.73
2022-10-17T14:24:51.334Z,10.13
2022-10-17T14:28:19.252Z,15.40
2022-10-17T14:31:41.794Z,9.53
2022-10-17T14:35:24.358Z,8.73
2022-10-17T14:38:25.225Z,8.73
2022-10-17T14:41:44.255Z,10.70
2022-10-17T14:45:06.913Z,14.03
2022-10-17T14:48:32.659Z,9.75
2022-10-17T14:51:56.784Z,9.28
2022-10-17T14:55:21.451Z,8.28
2022-10-17T14:58:39.547Z,13.20
2022-10-17T15:01:55.753Z,10.80
2022-10-17T15:05:13.571Z,11.38
2022-10-17T15:08:33.104Z,13.90
2022-10-17T15:11:49.242Z,15.45
2022-10-17T15:15:05.214Z,15.23
2022-10-17T15:18:24.057Z,17.48
2022-10-17T15:21:44.678Z,13.80
2022-10-17T15:24:58.558Z,24.47
2022-10-17T15:28:15.429Z,13.23
2022-10-17T15:31:33.162Z,18.68
2022-10-17T15:34:49.783Z,16.70
2022-10-17T15:38:06.552Z,15.70
2022-10-17T15:41:23.389Z,14.95
2022-10-17T15:44:41.139Z,16.08
2022-10-17T15:48:01.293Z,19.08
2022-10-17T15:51:17.835Z,17.40
2022-10-17T15:54:33.938Z,16.78
2022-10-17T15:57:52.589Z,18.55
2022-10-17T16:01:09.496Z,16.15
2022-10-17T16:04:32.024Z,20.95
2022-10-17T16:07:49.045Z,16.68
2022-10-17T16:11:05.173Z,20.43
2022-10-17T16:14:23.411Z,19.08
2022-10-17T16:17:39.278Z,18.87
2022-10-17T16:20:55.660Z,21.38
2022-10-17T16:24:14.558Z,16.55
2022-10-17T16:27:30.472Z,19.33
2022-10-17T16:30:50.775Z,14.95
2022-10-17T16:34:09.676Z,14.70
2022-10-17T16:37:26.418Z,13.90
2022-10-17T16:40:48.057Z,18.73
2022-10-17T16:44:06.704Z,18.33
2022-10-17T16:47:23.368Z,15.85
2022-10-17T16:50:39.510Z,13.83
2022-10-17T16:57:12.947Z,16.30
2022-10-17T17:00:29.183Z,17.75
2022-10-17T17:03:47.766Z,16.53
2022-10-17T17:07:04.042Z,16.85
2022-10-17T17:10:20.431Z,16.80
2022-10-17T17:13:37.768Z,19.00
2022-10-17T17:16:54.051Z,14.98
2022-10-17T17:20:10.529Z,18.93
2022-10-17T17:23:29.701Z,15.00
2022-10-17T17:30:01.941Z,14.95
2022-10-17T17:33:18.175Z,15.05
2022-10-17T17:36:39.583Z,13.90
2022-10-17T17:39:58.097Z,13.93
2022-10-17T17:43:14.233Z,14.28
2022-10-17T17:46:31.693Z,15.10
2022-10-17T17:49:47.842Z,13.75
2022-10-17T17:53:04.197Z,14.98
2022-10-17T17:56:23.601Z,13.50
2022-10-17T17:59:40.002Z,13.08
2022-10-17T18:02:56.934Z,15.35
2022-10-17T18:06:16.635Z,14.05
2022-10-17T18:09:32.865Z,14.33
2022-10-17T18:12:51.550Z,13.78
2022-10-17T18:16:11.147Z,18.73
2022-10-17T18:19:29.059Z,15.45
2022-10-17T18:22:45.257Z,13.43
2022-10-17T18:26:06.480Z,15.18
2022-10-17T18:29:24.878Z,13.78
2022-10-17T18:32:42.156Z,13.45
2022-10-17T18:36:02.366Z,13.65
2022-10-17T18:39:18.802Z,14.68
2022-10-17T18:42:34.965Z,15.58
2022-10-17T18:45:51.414Z,13.65
2022-10-17T18:49:08.205Z,12.95
2022-10-17T18:52:25.373Z,14.48
2022-10-17T18:59:03.951Z,19.00
2022-10-17T19:02:21.509Z,16.05
2022-10-17T19:05:39.754Z,15.95
2022-10-17T19:08:56.092Z,22.00
2022-10-17T19:12:13.515Z,15.60
2022-10-17T19:15:31.204Z,17.08
2022-10-17T19:18:49.412Z,17.35
2022-10-17T19:22:06.410Z,14.68
2022-10-17T19:25:23.062Z,17.00
2022-10-17T19:28:40.227Z,18.05
2022-10-17T19:31:57.220Z,16.43
2022-10-17T19:35:18.885Z,14.75
2022-10-17T19:41:52.948Z,14.58
2022-10-17T19:45:10.476Z,15.95
2022-10-17T19:48:27.461Z,13.45
2022-10-17T19:51:45.178Z,15.98
2022-10-17T19:58:17.541Z,13.00
2022-10-17T20:01:37.286Z,16.30
2022-10-17T20:05:13.794Z,14.95
2022-10-17T20:11:33.070Z,16.48
2022-10-17T20:14:49.519Z,17.08
2022-10-17T20:18:05.959Z,21.05
2022-10-17T20:21:28.445Z,13.43
2022-10-17T20:24:44.643Z,17.50
2022-10-17T20:28:00.808Z,13.38
2022-10-17T20:31:18.418Z,13.25
2022-10-17T20:34:36.321Z,15.68
2022-10-17T20:37:53.928Z,16.98
2022-10-17T20:41:14.284Z,21.53
2022-10-17T20:44:30.408Z,12.30
2022-10-17T20:47:50.335Z,19.88
2022-10-17T20:51:04.485Z,16.48
2022-10-17T20:57:36.529Z,15.25
2022-10-17T21:00:53.120Z,15.40
2022-10-17T21:07:28.338Z,16.53
2022-10-17T21:10:45.264Z,16.45
2022-10-17T21:14:08.955Z,14.93
2022-10-17T21:17:25.039Z,13.65
2022-10-17T21:20:41.257Z,15.60
2022-10-17T21:27:14.524Z,18.68
2022-10-17T21:30:30.724Z,16.68
2022-10-17T21:33:47.646Z,15.65
2022-10-17T21:37:04.082Z,17.78
2022-10-17T21:43:35.565Z,14.33
2022-10-17T21:46:52.379Z,15.20
2022-10-17T21:50:09.289Z,16.95
2022-10-17T21:53:25.445Z,16.63
2022-10-17T21:56:42.107Z,14.18
2022-10-17T21:59:58.277Z,19.43
2022-10-17T22:03:15.833Z,17.38
2022-10-17T22:06:42.073Z,18.88
2022-10-17T22:13:07.513Z,15.20
2022-10-17T22:16:24.566Z,16.40
2022-10-17T22:19:40.996Z,16.70
2022-10-17T22:22:59.058Z,18.43
2022-10-17T22:29:30.692Z,19.50
2022-10-17T22:32:47.403Z,15.20
2022-10-17T22:36:03.299Z,20.08
2022-10-17T22:39:19.456Z,21.70
2022-10-17T22:42:36.270Z,22.05
2022-10-17T22:45:58.588Z,17.43
2022-10-17T22:49:14.791Z,16.65
2022-10-17T22:52:31.717Z,17.20
2022-10-17T22:55:49.020Z,18.38
2022-10-17T22:59:05.119Z,19.63
2022-10-17T23:02:22.868Z,19.20
2022-10-17T23:05:41.404Z,19.30
2022-10-17T23:08:57.899Z,19.53
2022-10-17T23:12:14.818Z,18.00
2022-10-17T23:15:30.996Z,18.65
2022-10-17T23:18:47.679Z,22.50
2022-10-17T23:22:03.744Z,17.35
2022-10-17T23:25:20.019Z,16.58
2022-10-17T23:28:36.167Z,17.68
2022-10-17T23:31:52.350Z,19.23
2022-10-17T23:35:08.429Z,24.98
2022-10-17T23:38:25.903Z,20.45
2022-10-17T23:41:41.650Z,21.55
2022-10-17T23:44:58.430Z,21.45
2022-10-17T23:48:16.348Z,18.17
2022-10-17T23:51:32.863Z,22.25
2022-10-17T23:58:04.597Z,22.83
